sensor_id;sensor_type;location;lat;lon;timestamp;pressure;altitude;pressure_sealevel;temperature;humidity
74631;BME280;63138;55.082;38.804;2024-03-29T00:01:18;99355.75;;;2.99;100.00
74631;BME280;63138;55.082;38.804;2024-03-29T00:03:45;99355.59;;;3.11;100.00
74631;BME280;63138;55.082;38.804;2024-03-29T00:06:10;99355.31;;;3.14;100.00
74631;BME280;63138;55.082;38.804;2024-03-29T00:08:37;99356.69;;;3.18;100.00
74631;BME280;63138;55.082;38.804;2024-03-29T00:11:03;99358.66;;;3.25;100.00
74631;BME280;63138;55.082;38.804;2024-03-29T00:13:29;99347.94;;;3.25;100.00
74631;BME280;63138;55.082;38.804;2024-03-29T00:15:55;99342.56;;;3.25;100.00
74631;BME280;63138;55.082;38.804;2024-03-29T00:18:20;99335.94;;;3.20;100.00
74631;BME280;63138;55.082;38.804;2024-03-29T00:20:47;99336.09;;;3.09;100.00
74631;BME280;63138;55.082;38.804;2024-03-29T00:23:13;99331.03;;;3.05;100.00
74631;BME280;63138;55.082;38.804;2024-03-29T00:25:39;99329.34;;;3.04;100.00
74631;BME280;63138;55.082;38.804;2024-03-29T00:28:06;99326.25;;;2.99;100.00
74631;BME280;63138;55.082;38.804;2024-03-29T00:30:32;99324.41;;;2.90;100.00
74631;BME280;63138;55.082;38.804;2024-03-29T00:32:59;99323.84;;;2.86;100.00
74631;BME280;63138;55.082;38.804;2024-03-29T00:35:26;99321.75;;;2.90;100.00
74631;BME280;63138;55.082;38.804;2024-03-29T00:37:52;99318.19;;;2.90;100.00
74631;BME280;63138;55.082;38.804;2024-03-29T00:40:18;99309.88;;;2.83;100.00
74631;BME280;63138;55.082;38.804;2024-03-29T00:42:43;99307.63;;;2.78;100.00
74631;BME280;63138;55.082;38.804;2024-03-29T00:45:09;99306.66;;;2.79;100.00
74631;BME280;63138;55.082;38.804;2024-03-29T00:47:35;99300.84;;;2.84;100.00
74631;BME280;63138;55.082;38.804;2024-03-29T00:50:01;99303.78;;;2.81;100.00
74631;BME280;63138;55.082;38.804;2024-03-29T00:52:27;99294.03;;;2.90;100.00
74631;BME280;63138;55.082;38.804;2024-03-29T00:54:53;99295.31;;;2.95;100.00
74631;BME280;63138;55.082;38.804;2024-03-29T00:57:19;99283.59;;;2.96;100.00
74631;BME280;63138;55.082;38.804;2024-03-29T00:59:46;99292.47;;;2.97;100.00
74631;BME280;63138;55.082;38.804;2024-03-29T01:02:13;99286.56;;;2.93;100.00
74631;BME280;63138;55.082;38.804;2024-03-29T01:04:39;99278.81;;;2.90;100.00
74631;BME280;63138;55.082;38.804;2024-03-29T01:07:06;99274.31;;;2.91;100.00
74631;BME280;63138;55.082;38.804;2024-03-29T01:09:32;99274.03;;;2.94;100.00
74631;BME280;63138;55.082;38.804;2024-03-29T01:11:58;99264.97;;;2.95;100.00
74631;BME280;63138;55.082;38.804;2024-03-29T01:14:24;99265.53;;;2.98;100.00
74631;BME280;63138;55.082;38.804;2024-03-29T01:16:50;99252.41;;;2.95;100.00
74631;BME280;63138;55.082;38.804;2024-03-29T01:19:16;99257.19;;;3.01;100.00
74631;BME280;63138;55.082;38.804;2024-03-29T01:21:42;99254.22;;;3.04;100.00
74631;BME280;63138;55.082;38.804;2024-03-29T01:24:08;99244.91;;;3.09;100.00
74631;BME280;63138;55.082;38.804;2024-03-29T01:26:33;99251.56;;;3.04;100.00
74631;BME280;63138;55.082;38.804;2024-03-29T01:29:00;99250.81;;;3.02;100.00
74631;BME280;63138;55.082;38.804;2024-03-29T01:31:25;99240.97;;;3.03;100.00
74631;BME280;63138;55.082;38.804;2024-03-29T01:33:51;99236.16;;;3.06;100.00
74631;BME280;63138;55.082;38.804;2024-03-29T01:36:18;99236.44;;;3.03;100.00
74631;BME280;63138;55.082;38.804;2024-03-29T01:38:43;99229.78;;;3.08;100.00
74631;BME280;63138;55.082;38.804;2024-03-29T01:41:11;99220.47;;;3.12;100.00
74631;BME280;63138;55.082;38.804;2024-03-29T01:43:38;99218.34;;;3.15;100.00
74631;BME280;63138;55.082;38.804;2024-03-29T01:46:05;99208.44;;;3.16;100.00
74631;BME280;63138;55.082;38.804;2024-03-29T01:48:34;99211.22;;;3.24;100.00
74631;BME280;63138;55.082;38.804;2024-03-29T01:51:00;99204.44;;;3.30;100.00
74631;BME280;63138;55.082;38.804;2024-03-29T01:53:27;99207.81;;;3.32;100.00
74631;BME280;63138;55.082;38.804;2024-03-29T01:55:54;99209.34;;;3.34;100.00
74631;BME280;63138;55.082;38.804;2024-03-29T01:58:20;99204.81;;;3.35;100.00
74631;BME280;63138;55.082;38.804;2024-03-29T02:00:58;99198.59;;;3.34;100.00
74631;BME280;63138;55.082;38.804;2024-03-29T02:03:24;99189.97;;;3.40;100.00
74631;BME280;63138;55.082;38.804;2024-03-29T02:05:50;99194.34;;;3.41;100.00
74631;BME280;63138;55.082;38.804;2024-03-29T02:08:16;99184.44;;;3.42;100.00
74631;BME280;63138;55.082;38.804;2024-03-29T02:10:45;99184.28;;;3.43;100.00
74631;BME280;63138;55.082;38.804;2024-03-29T02:13:13;99172.44;;;3.46;100.00
74631;BME280;63138;55.082;38.804;2024-03-29T02:15:40;99176.78;;;3.47;100.00
74631;BME280;63138;55.082;38.804;2024-03-29T02:18:09;99166.19;;;3.45;100.00
74631;BME280;63138;55.082;38.804;2024-03-29T02:20:35;99167.91;;;3.47;100.00
74631;BME280;63138;55.082;38.804;2024-03-29T02:25:35;99168.97;;;3.54;100.00
74631;BME280;63138;55.082;38.804;2024-03-29T02:28:03;99165.75;;;3.50;100.00
74631;BME280;63138;55.082;38.804;2024-03-29T02:30:29;99152.19;;;3.52;100.00
74631;BME280;63138;55.082;38.804;2024-03-29T02:32:59;99167.28;;;3.53;100.00
74631;BME280;63138;55.082;38.804;2024-03-29T02:35:24;99157.09;;;3.56;100.00
74631;BME280;63138;55.082;38.804;2024-03-29T02:37:50;99167.81;;;3.56;100.00
74631;BME280;63138;55.082;38.804;2024-03-29T02:40:18;99147.22;;;3.57;100.00
74631;BME280;63138;55.082;38.804;2024-03-29T02:42:44;99148.06;;;3.57;100.00
74631;BME280;63138;55.082;38.804;2024-03-29T02:45:10;99155.41;;;3.55;100.00
74631;BME280;63138;55.082;38.804;2024-03-29T02:47:36;99151.72;;;3.56;100.00
74631;BME280;63138;55.082;38.804;2024-03-29T02:50:01;99157.09;;;3.56;100.00
74631;BME280;63138;55.082;38.804;2024-03-29T02:52:29;99153.16;;;3.51;100.00
74631;BME280;63138;55.082;38.804;2024-03-29T02:54:55;99147.66;;;3.52;100.00
74631;BME280;63138;55.082;38.804;2024-03-29T02:57:21;99154.72;;;3.53;100.00
74631;BME280;63138;55.082;38.804;2024-03-29T02:59:47;99148.50;;;3.53;100.00
74631;BME280;63138;55.082;38.804;2024-03-29T03:02:12;99152.03;;;3.53;100.00
74631;BME280;63138;55.082;38.804;2024-03-29T03:04:38;99148.50;;;3.53;100.00
74631;BME280;63138;55.082;38.804;2024-03-29T03:07:04;99145.97;;;3.51;100.00
74631;BME280;63138;55.082;38.804;2024-03-29T03:09:49;99150.47;;;3.51;100.00
74631;BME280;63138;55.082;38.804;2024-03-29T03:12:33;99143.13;;;3.53;100.00
74631;BME280;63138;55.082;38.804;2024-03-29T03:14:59;99141.44;;;3.52;100.00
74631;BME280;63138;55.082;38.804;2024-03-29T03:17:26;99130.03;;;3.50;100.00
74631;BME280;63138;55.082;38.804;2024-03-29T03:19:53;99129.00;;;3.51;100.00
74631;BME280;63138;55.082;38.804;2024-03-29T03:22:19;99127.00;;;3.53;100.00
74631;BME280;63138;55.082;38.804;2024-03-29T03:24:45;99130.84;;;3.50;100.00
74631;BME280;63138;55.082;38.804;2024-03-29T03:27:11;99124.34;;;3.53;100.00
74631;BME280;63138;55.082;38.804;2024-03-29T03:29:37;99121.81;;;3.51;100.00
74631;BME280;63138;55.082;38.804;2024-03-29T03:32:04;99116.13;;;3.54;100.00
74631;BME280;63138;55.082;38.804;2024-03-29T03:34:49;99107.94;;;3.56;100.00
74631;BME280;63138;55.082;38.804;2024-03-29T03:37:15;99100.16;;;3.53;100.00
74631;BME280;63138;55.082;38.804;2024-03-29T03:39:40;99115.16;;;3.55;100.00
74631;BME280;63138;55.082;38.804;2024-03-29T03:42:07;99104.25;;;3.57;100.00
74631;BME280;63138;55.082;38.804;2024-03-29T03:44:33;99111.44;;;3.56;100.00
74631;BME280;63138;55.082;38.804;2024-03-29T03:46:59;99102.25;;;3.59;100.00
74631;BME280;63138;55.082;38.804;2024-03-29T03:49:25;99104.94;;;3.59;100.00
74631;BME280;63138;55.082;38.804;2024-03-29T03:51:51;99112.31;;;3.57;100.00
74631;BME280;63138;55.082;38.804;2024-03-29T03:54:17;99100.03;;;3.54;100.00
74631;BME280;63138;55.082;38.804;2024-03-29T03:56:44;99103.56;;;3.55;100.00
74631;BME280;63138;55.082;38.804;2024-03-29T03:59:10;99103.41;;;3.56;100.00
74631;BME280;63138;55.082;38.804;2024-03-29T04:01:35;99103.94;;;3.60;100.00
74631;BME280;63138;55.082;38.804;2024-03-29T04:04:02;99104.13;;;3.58;100.00
74631;BME280;63138;55.082;38.804;2024-03-29T04:06:28;99101.97;;;3.62;100.00
74631;BME280;63138;55.082;38.804;2024-03-29T04:09:15;99095.00;;;3.69;100.00
74631;BME280;63138;55.082;38.804;2024-03-29T04:11:44;99099.03;;;3.73;100.00
74631;BME280;63138;55.082;38.804;2024-03-29T04:14:10;99093.69;;;3.73;100.00
74631;BME280;63138;55.082;38.804;2024-03-29T04:16:35;99088.16;;;3.75;100.00
74631;BME280;63138;55.082;38.804;2024-03-29T04:19:01;99082.41;;;3.70;100.00
74631;BME280;63138;55.082;38.804;2024-03-29T04:21:28;99078.69;;;3.71;100.00
74631;BME280;63138;55.082;38.804;2024-03-29T04:23:54;99079.88;;;3.68;100.00
74631;BME280;63138;55.082;38.804;2024-03-29T04:26:22;99069.91;;;3.78;100.00
74631;BME280;63138;55.082;38.804;2024-03-29T04:28:48;99070.56;;;3.80;100.00
74631;BME280;63138;55.082;38.804;2024-03-29T04:31:14;99081.91;;;3.92;100.00
74631;BME280;63138;55.082;38.804;2024-03-29T04:33:40;99066.97;;;3.90;100.00
74631;BME280;63138;55.082;38.804;2024-03-29T04:36:06;99054.28;;;4.00;100.00
74631;BME280;63138;55.082;38.804;2024-03-29T04:38:32;99052.72;;;4.15;100.00
74631;BME280;63138;55.082;38.804;2024-03-29T04:40:58;99046.00;;;4.19;100.00
74631;BME280;63138;55.082;38.804;2024-03-29T04:43:26;99043.91;;;4.31;100.00
74631;BME280;63138;55.082;38.804;2024-03-29T04:46:10;99043.38;;;4.28;100.00
74631;BME280;63138;55.082;38.804;2024-03-29T04:48:41;99036.59;;;4.42;100.00
74631;BME280;63138;55.082;38.804;2024-03-29T04:51:11;99034.97;;;4.57;100.00
74631;BME280;63138;55.082;38.804;2024-03-29T04:53:38;99030.28;;;4.59;100.00
74631;BME280;63138;55.082;38.804;2024-03-29T04:56:04;99027.78;;;4.57;100.00
74631;BME280;63138;55.082;38.804;2024-03-29T04:58:31;99014.03;;;4.69;100.00
74631;BME280;63138;55.082;38.804;2024-03-29T05:00:57;99012.16;;;4.61;100.00
74631;BME280;63138;55.082;38.804;2024-03-29T05:03:23;99015.31;;;4.56;100.00
74631;BME280;63138;55.082;38.804;2024-03-29T05:05:50;99028.41;;;4.51;100.00
74631;BME280;63138;55.082;38.804;2024-03-29T05:08:17;99023.53;;;4.47;100.00
74631;BME280;63138;55.082;38.804;2024-03-29T05:10:44;99012.25;;;4.43;100.00
74631;BME280;63138;55.082;38.804;2024-03-29T05:13:10;99017.28;;;4.46;100.00
74631;BME280;63138;55.082;38.804;2024-03-29T05:15:36;99018.31;;;4.53;100.00
74631;BME280;63138;55.082;38.804;2024-03-29T05:18:02;99023.75;;;4.62;100.00
74631;BME280;63138;55.082;38.804;2024-03-29T05:20:29;99033.47;;;4.54;100.00
74631;BME280;63138;55.082;38.804;2024-03-29T05:22:55;99034.19;;;4.65;100.00
74631;BME280;63138;55.082;38.804;2024-03-29T05:25:21;99005.00;;;4.44;100.00
74631;BME280;63138;55.082;38.804;2024-03-29T05:27:49;99007.41;;;4.55;100.00
74631;BME280;63138;55.082;38.804;2024-03-29T05:30:15;99021.69;;;4.55;100.00
74631;BME280;63138;55.082;38.804;2024-03-29T05:32:42;99002.56;;;4.58;100.00
74631;BME280;63138;55.082;38.804;2024-03-29T05:35:08;99015.03;;;4.68;100.00
74631;BME280;63138;55.082;38.804;2024-03-29T05:37:35;99008.13;;;4.65;100.00
74631;BME280;63138;55.082;38.804;2024-03-29T05:40:02;99006.34;;;4.74;100.00
74631;BME280;63138;55.082;38.804;2024-03-29T05:42:31;99003.66;;;4.82;100.00
74631;BME280;63138;55.082;38.804;2024-03-29T05:44:57;99006.38;;;4.90;100.00
74631;BME280;63138;55.082;38.804;2024-03-29T05:47:23;99015.44;;;4.81;100.00
74631;BME280;63138;55.082;38.804;2024-03-29T05:49:50;99007.56;;;4.96;100.00
74631;BME280;63138;55.082;38.804;2024-03-29T05:52:16;99008.91;;;4.92;100.00
74631;BME280;63138;55.082;38.804;2024-03-29T05:55:00;99001.88;;;5.07;100.00
74631;BME280;63138;55.082;38.804;2024-03-29T05:57:32;99004.59;;;5.15;100.00
74631;BME280;63138;55.082;38.804;2024-03-29T06:00:00;99000.84;;;5.00;100.00
74631;BME280;63138;55.082;38.804;2024-03-29T06:02:25;99001.75;;;5.17;100.00
74631;BME280;63138;55.082;38.804;2024-03-29T06:04:51;99004.13;;;5.28;100.00
74631;BME280;63138;55.082;38.804;2024-03-29T06:07:17;98998.41;;;5.31;100.00
74631;BME280;63138;55.082;38.804;2024-03-29T06:09:43;98986.47;;;5.42;100.00
74631;BME280;63138;55.082;38.804;2024-03-29T06:12:09;98980.38;;;5.24;100.00
74631;BME280;63138;55.082;38.804;2024-03-29T06:14:37;98997.06;;;5.44;100.00
74631;BME280;63138;55.082;38.804;2024-03-29T06:17:21;98997.78;;;6.03;100.00
74631;BME280;63138;55.082;38.804;2024-03-29T06:19:51;98996.72;;;6.29;100.00
74631;BME280;63138;55.082;38.804;2024-03-29T06:22:24;98995.53;;;6.31;100.00
74631;BME280;63138;55.082;38.804;2024-03-29T06:24:51;98987.00;;;6.03;100.00
74631;BME280;63138;55.082;38.804;2024-03-29T06:27:18;98982.19;;;6.46;100.00
74631;BME280;63138;55.082;38.804;2024-03-29T06:29:46;98972.34;;;6.62;100.00
74631;BME280;63138;55.082;38.804;2024-03-29T06:32:12;98978.75;;;7.70;100.00
74631;BME280;63138;55.082;38.804;2024-03-29T06:34:39;98969.72;;;8.15;100.00
74631;BME280;63138;55.082;38.804;2024-03-29T06:37:05;98969.41;;;7.95;100.00
74631;BME280;63138;55.082;38.804;2024-03-29T06:39:31;98982.34;;;7.85;100.00
74631;BME280;63138;55.082;38.804;2024-03-29T06:41:56;98969.81;;;8.07;100.00
74631;BME280;63138;55.082;38.804;2024-03-29T06:44:22;98954.84;;;7.81;100.00
74631;BME280;63138;55.082;38.804;2024-03-29T06:46:50;98966.81;;;7.18;100.00
74631;BME280;63138;55.082;38.804;2024-03-29T06:49:16;98969.22;;;6.81;100.00
74631;BME280;63138;55.082;38.804;2024-03-29T06:51:42;98977.81;;;6.85;100.00
74631;BME280;63138;55.082;38.804;2024-03-29T06:54:09;98973.97;;;6.71;100.00
74631;BME280;63138;55.082;38.804;2024-03-29T06:56:34;98960.13;;;6.74;100.00
74631;BME280;63138;55.082;38.804;2024-03-29T06:59:00;98959.34;;;6.65;100.00
74631;BME280;63138;55.082;38.804;2024-03-29T07:01:27;98968.00;;;6.44;100.00
74631;BME280;63138;55.082;38.804;2024-03-29T07:03:53;98963.53;;;6.68;100.00
74631;BME280;63138;55.082;38.804;2024-03-29T07:06:18;98960.13;;;6.43;100.00
74631;BME280;63138;55.082;38.804;2024-03-29T07:08:44;98955.63;;;6.27;100.00
74631;BME280;63138;55.082;38.804;2024-03-29T07:11:10;98944.16;;;6.25;100.00
74631;BME280;63138;55.082;38.804;2024-03-29T07:13:37;98960.88;;;5.87;100.00
74631;BME280;63138;55.082;38.804;2024-03-29T07:16:03;98950.09;;;5.79;100.00
74631;BME280;63138;55.082;38.804;2024-03-29T07:18:29;98944.56;;;5.64;100.00
74631;BME280;63138;55.082;38.804;2024-03-29T07:20:55;98951.97;;;5.70;100.00
74631;BME280;63138;55.082;38.804;2024-03-29T07:23:21;98952.63;;;5.56;100.00
74631;BME280;63138;55.082;38.804;2024-03-29T07:25:59;98955.00;;;5.51;100.00
74631;BME280;63138;55.082;38.804;2024-03-29T07:28:26;98956.69;;;5.60;100.00
74631;BME280;63138;55.082;38.804;2024-03-29T07:30:52;98963.59;;;5.46;100.00
74631;BME280;63138;55.082;38.804;2024-03-29T07:33:22;98946.75;;;5.52;100.00
74631;BME280;63138;55.082;38.804;2024-03-29T07:35:52;98940.19;;;5.47;100.00
74631;BME280;63138;55.082;38.804;2024-03-29T07:38:19;98943.88;;;5.54;100.00
74631;BME280;63138;55.082;38.804;2024-03-29T07:40:51;98944.72;;;5.54;100.00
74631;BME280;63138;55.082;38.804;2024-03-29T07:43:18;98956.69;;;5.52;100.00
74631;BME280;63138;55.082;38.804;2024-03-29T07:45:44;98951.31;;;5.52;100.00
74631;BME280;63138;55.082;38.804;2024-03-29T07:48:15;98957.03;;;5.41;100.00
74631;BME280;63138;55.082;38.804;2024-03-29T07:50:42;98950.09;;;5.38;100.00
74631;BME280;63138;55.082;38.804;2024-03-29T07:53:09;98955.50;;;5.38;100.00
74631;BME280;63138;55.082;38.804;2024-03-29T07:55:39;98945.56;;;5.47;100.00
74631;BME280;63138;55.082;38.804;2024-03-29T07:58:05;98948.28;;;5.47;100.00
74631;BME280;63138;55.082;38.804;2024-03-29T08:00:32;98939.88;;;5.33;100.00
74631;BME280;63138;55.082;38.804;2024-03-29T08:02:59;98932.44;;;5.27;100.00
74631;BME280;63138;55.082;38.804;2024-03-29T08:05:25;98932.13;;;5.22;100.00
74631;BME280;63138;55.082;38.804;2024-03-29T08:07:50;98927.38;;;5.16;100.00
74631;BME280;63138;55.082;38.804;2024-03-29T08:10:17;98934.97;;;5.12;100.00
74631;BME280;63138;55.082;38.804;2024-03-29T08:12:43;98929.00;;;4.76;100.00
74631;BME280;63138;55.082;38.804;2024-03-29T08:15:09;98911.34;;;4.65;100.00
74631;BME280;63138;55.082;38.804;2024-03-29T08:17:36;98914.81;;;4.49;100.00
74631;BME280;63138;55.082;38.804;2024-03-29T08:20:03;98924.16;;;4.37;100.00
74631;BME280;63138;55.082;38.804;2024-03-29T08:22:29;98916.41;;;4.26;100.00
74631;BME280;63138;55.082;38.804;2024-03-29T08:24:55;98919.69;;;4.11;100.00
74631;BME280;63138;55.082;38.804;2024-03-29T08:27:21;98934.44;;;4.07;100.00
74631;BME280;63138;55.082;38.804;2024-03-29T08:29:47;98954.25;;;4.06;100.00
74631;BME280;63138;55.082;38.804;2024-03-29T08:32:14;98943.09;;;3.93;100.00
74631;BME280;63138;55.082;38.804;2024-03-29T08:34:42;98949.09;;;3.87;100.00
74631;BME280;63138;55.082;38.804;2024-03-29T08:37:07;98933.91;;;3.77;100.00
74631;BME280;63138;55.082;38.804;2024-03-29T08:39:35;98924.44;;;3.65;100.00
74631;BME280;63138;55.082;38.804;2024-03-29T08:42:07;98916.75;;;3.70;100.00
74631;BME280;63138;55.082;38.804;2024-03-29T08:44:35;98910.03;;;3.66;100.00
74631;BME280;63138;55.082;38.804;2024-03-29T08:47:01;98929.50;;;3.68;100.00
74631;BME280;63138;55.082;38.804;2024-03-29T08:49:28;98943.31;;;3.73;100.00
74631;BME280;63138;55.082;38.804;2024-03-29T08:51:55;98935.69;;;3.69;100.00
74631;BME280;63138;55.082;38.804;2024-03-29T08:54:21;98937.94;;;3.73;100.00
74631;BME280;63138;55.082;38.804;2024-03-29T08:56:47;98931.38;;;3.76;100.00
74631;BME280;63138;55.082;38.804;2024-03-29T08:59:13;98934.06;;;3.76;100.00
74631;BME280;63138;55.082;38.804;2024-03-29T09:01:45;98934.94;;;3.76;100.00
74631;BME280;63138;55.082;38.804;2024-03-29T09:04:11;98922.88;;;3.80;100.00
74631;BME280;63138;55.082;38.804;2024-03-29T09:06:37;98934.00;;;3.86;100.00
74631;BME280;63138;55.082;38.804;2024-03-29T09:09:06;98941.41;;;3.92;100.00
74631;BME280;63138;55.082;38.804;2024-03-29T09:11:33;98936.03;;;3.92;100.00
74631;BME280;63138;55.082;38.804;2024-03-29T09:13:59;98946.41;;;3.87;100.00
74631;BME280;63138;55.082;38.804;2024-03-29T09:16:27;98941.94;;;3.95;100.00
74631;BME280;63138;55.082;38.804;2024-03-29T09:18:56;98936.56;;;3.95;100.00
74631;BME280;63138;55.082;38.804;2024-03-29T09:21:22;98934.75;;;4.04;100.00
74631;BME280;63138;55.082;38.804;2024-03-29T09:23:48;98936.25;;;3.98;100.00
74631;BME280;63138;55.082;38.804;2024-03-29T09:26:16;98923.34;;;4.02;100.00
74631;BME280;63138;55.082;38.804;2024-03-29T09:28:42;98917.59;;;3.97;100.00
74631;BME280;63138;55.082;38.804;2024-03-29T09:31:08;98914.75;;;3.98;100.00
74631;BME280;63138;55.082;38.804;2024-03-29T09:33:35;98899.69;;;4.06;100.00
74631;BME280;63138;55.082;38.804;2024-03-29T09:36:00;98898.50;;;4.08;100.00
74631;BME280;63138;55.082;38.804;2024-03-29T09:38:26;98903.41;;;4.13;100.00
74631;BME280;63138;55.082;38.804;2024-03-29T09:41:22;98897.06;;;4.22;100.00
74631;BME280;63138;55.082;38.804;2024-03-29T09:43:51;98882.59;;;4.23;100.00
74631;BME280;63138;55.082;38.804;2024-03-29T09:46:20;98885.47;;;4.21;100.00
74631;BME280;63138;55.082;38.804;2024-03-29T09:48:48;98887.03;;;4.40;100.00
74631;BME280;63138;55.082;38.804;2024-03-29T09:51:14;98893.44;;;4.48;100.00
74631;BME280;63138;55.082;38.804;2024-03-29T09:53:43;98890.28;;;4.52;100.00
74631;BME280;63138;55.082;38.804;2024-03-29T09:56:09;98883.25;;;4.59;100.00
74631;BME280;63138;55.082;38.804;2024-03-29T09:58:38;98884.56;;;4.55;100.00
74631;BME280;63138;55.082;38.804;2024-03-29T10:01:06;98884.03;;;4.52;100.00
74631;BME280;63138;55.082;38.804;2024-03-29T10:03:39;98879.19;;;4.55;100.00
74631;BME280;63138;55.082;38.804;2024-03-29T10:06:06;98880.53;;;4.51;100.00
74631;BME280;63138;55.082;38.804;2024-03-29T10:08:36;98889.09;;;4.55;100.00
74631;BME280;63138;55.082;38.804;2024-03-29T10:11:02;98879.19;;;4.47;100.00
74631;BME280;63138;55.082;38.804;2024-03-29T10:13:29;98884.41;;;4.49;100.00
74631;BME280;63138;55.082;38.804;2024-03-29T10:15:56;98875.81;;;4.45;100.00
74631;BME280;63138;55.082;38.804;2024-03-29T10:18:23;98862.53;;;4.52;100.00
74631;BME280;63138;55.082;38.804;2024-03-29T10:21:08;98862.88;;;4.49;100.00
74631;BME280;63138;55.082;38.804;2024-03-29T10:23:35;98867.59;;;4.55;100.00
74631;BME280;63138;55.082;38.804;2024-03-29T10:26:02;98861.75;;;4.59;100.00
74631;BME280;63138;55.082;38.804;2024-03-29T10:28:32;98860.38;;;4.55;100.00
74631;BME280;63138;55.082;38.804;2024-03-29T10:30:59;98845.97;;;4.65;100.00
74631;BME280;63138;55.082;38.804;2024-03-29T10:33:32;98845.28;;;4.71;100.00
74631;BME280;63138;55.082;38.804;2024-03-29T10:36:03;98847.63;;;4.82;100.00
74631;BME280;63138;55.082;38.804;2024-03-29T10:38:34;98854.53;;;4.93;100.00
74631;BME280;63138;55.082;38.804;2024-03-29T10:41:01;98844.13;;;4.82;100.00
74631;BME280;63138;55.082;38.804;2024-03-29T10:43:29;98838.56;;;4.91;100.00
74631;BME280;63138;55.082;38.804;2024-03-29T10:45:59;98834.56;;;5.12;100.00
74631;BME280;63138;55.082;38.804;2024-03-29T10:48:27;98829.31;;;5.27;100.00
74631;BME280;63138;55.082;38.804;2024-03-29T10:50:54;98829.66;;;5.32;100.00
74631;BME280;63138;55.082;38.804;2024-03-29T10:53:24;98838.19;;;5.52;100.00
74631;BME280;63138;55.082;38.804;2024-03-29T10:55:54;98848.28;;;5.74;100.00
74631;BME280;63138;55.082;38.804;2024-03-29T10:58:25;98842.69;;;5.76;100.00
74631;BME280;63138;55.082;38.804;2024-03-29T11:00:53;98836.09;;;5.87;100.00
74631;BME280;63138;55.082;38.804;2024-03-29T11:03:50;98843.44;;;6.09;100.00
74631;BME280;63138;55.082;38.804;2024-03-29T11:06:18;98840.97;;;5.91;100.00
74631;BME280;63138;55.082;38.804;2024-03-29T11:08:47;98833.22;;;5.88;100.00
74631;BME280;63138;55.082;38.804;2024-03-29T11:11:17;98834.38;;;6.02;100.00
74631;BME280;63138;55.082;38.804;2024-03-29T11:16:16;98822.94;;;6.00;100.00
74631;BME280;63138;55.082;38.804;2024-03-29T11:18:45;98812.44;;;6.13;100.00
74631;BME280;63138;55.082;38.804;2024-03-29T11:21:14;98814.78;;;6.17;100.00
74631;BME280;63138;55.082;38.804;2024-03-29T11:23:52;98819.84;;;6.20;100.00
74631;BME280;63138;55.082;38.804;2024-03-29T11:26:36;98805.41;;;6.04;100.00
74631;BME280;63138;55.082;38.804;2024-03-29T11:29:03;98815.19;;;5.97;100.00
74631;BME280;63138;55.082;38.804;2024-03-29T11:31:29;98808.47;;;5.93;100.00
74631;BME280;63138;55.082;38.804;2024-03-29T11:33:58;98804.25;;;5.90;100.00
74631;BME280;63138;55.082;38.804;2024-03-29T11:36:25;98800.41;;;5.85;100.00
74631;BME280;63138;55.082;38.804;2024-03-29T11:38:58;98805.09;;;5.91;100.00
74631;BME280;63138;55.082;38.804;2024-03-29T11:41:50;98802.38;;;5.99;100.00
74631;BME280;63138;55.082;38.804;2024-03-29T11:44:16;98804.63;;;6.27;100.00
74631;BME280;63138;55.082;38.804;2024-03-29T11:46:43;98809.41;;;6.08;100.00
74631;BME280;63138;55.082;38.804;2024-03-29T11:49:12;98802.91;;;6.34;100.00
74631;BME280;63138;55.082;38.804;2024-03-29T11:51:38;98801.88;;;6.35;100.00
74631;BME280;63138;55.082;38.804;2024-03-29T11:54:04;98793.75;;;6.43;100.00
74631;BME280;63138;55.082;38.804;2024-03-29T11:56:30;98793.78;;;6.66;100.00
74631;BME280;63138;55.082;38.804;2024-03-29T11:58:57;98791.81;;;6.75;100.00
74631;BME280;63138;55.082;38.804;2024-03-29T12:01:26;98797.91;;;6.54;100.00
74631;BME280;63138;55.082;38.804;2024-03-29T12:03:53;98785.59;;;6.51;100.00
74631;BME280;63138;55.082;38.804;2024-03-29T12:06:20;98773.97;;;6.51;100.00
74631;BME280;63138;55.082;38.804;2024-03-29T12:09:04;98789.19;;;6.44;100.00
74631;BME280;63138;55.082;38.804;2024-03-29T12:11:31;98793.28;;;6.63;100.00
74631;BME280;63138;55.082;38.804;2024-03-29T12:13:58;98806.09;;;6.61;100.00
74631;BME280;63138;55.082;38.804;2024-03-29T12:16:24;98795.72;;;6.49;100.00
74631;BME280;63138;55.082;38.804;2024-03-29T12:18:51;98796.44;;;6.43;100.00
74631;BME280;63138;55.082;38.804;2024-03-29T12:21:18;98785.69;;;6.35;100.00
74631;BME280;63138;55.082;38.804;2024-03-29T12:23:48;98783.28;;;6.48;100.00
74631;BME280;63138;55.082;38.804;2024-03-29T12:26:16;98796.34;;;6.60;100.00
74631;BME280;63138;55.082;38.804;2024-03-29T12:29:06;98793.78;;;6.66;100.00
74631;BME280;63138;55.082;38.804;2024-03-29T12:31:32;98792.91;;;6.66;100.00
74631;BME280;63138;55.082;38.804;2024-03-29T12:34:22;98799.06;;;6.51;100.00
74631;BME280;63138;55.082;38.804;2024-03-29T12:36:49;98785.38;;;6.61;100.00
74631;BME280;63138;55.082;38.804;2024-03-29T12:39:14;98784.63;;;6.67;100.00
74631;BME280;63138;55.082;38.804;2024-03-29T12:41:42;98790.94;;;6.60;100.00
74631;BME280;63138;55.082;38.804;2024-03-29T12:44:10;98787.81;;;6.94;100.00
74631;BME280;63138;55.082;38.804;2024-03-29T12:46:37;98776.72;;;6.89;100.00
74631;BME280;63138;55.082;38.804;2024-03-29T12:49:03;98772.84;;;6.92;100.00
74631;BME280;63138;55.082;38.804;2024-03-29T12:51:29;98770.13;;;6.92;100.00
74631;BME280;63138;55.082;38.804;2024-03-29T12:53:55;98762.22;;;6.90;100.00
74631;BME280;63138;55.082;38.804;2024-03-29T12:56:26;98778.28;;;6.83;100.00
74631;BME280;63138;55.082;38.804;2024-03-29T12:58:52;98781.03;;;6.98;100.00